Las horas y fechas están en horario UTC
Sumar 1 hora en el horario de invierno y 2 en el de verano

Informes METAR cercanos

 

LEZL - Sevilla (civ/Mil, Spain
Distance from station: NNE 24km
Actualización: 20/11/2017 22:00
Despejado
Despejado
 Viento del N
Viento: N 6 km/h
Temperatura: 13°C
Rocío: 5°C
Humedad: 59%
Barómetro: 1021 hPa
Resumen: Despejado
Visibility: greater than 10 km
2017/11/20 21:00 LEZL 202100Z 35003KT CAVOK 13/05 Q1021 NOSIG
LEMO - Moron (sp-Usafb), Spain
Distance from station: E 38km
Actualización: 20/11/2017 22:00
Despejado
Despejado
 Viento del SSE
Viento: SSE 9 km/h
Temperatura: 11°C
Rocío: 4°C
Humedad: 62%
Barómetro: 1021 hPa
Resumen: Despejado
Visibility: greater than 10 km
2017/11/20 21:00 LEMO 202100Z 16005KT CAVOK 11/04 Q1021 NOSIG
LEJR - Jerez (civ/Mil), Spain
Distance from station: S 53km
Actualización: 20/11/2017 22:00
Despejado
Despejado
 Viento del calm
Viento: Calma
Temperatura: 11°C
Rocío: 5°C
Humedad: 67%
Barómetro: 1021 hPa
Resumen: Despejado
Visibility: greater than 10 km
2017/11/20 21:00 LEJR 202100Z 00000KT CAVOK 11/05 Q1021
 
LERT - Rota Naval Stati, Spain
Distance from station: SSO 71km
Actualización: 20/11/2017 22:00
Despejado
Despejado
 Viento del E
Viento: E 11 km/h
Temperatura: 14°C
Rocío: 9°C
Humedad: 72%
Barómetro: 1021 hPa
Resumen: Despejado
Visibility: greater than 10 km
2017/11/20 21:00 LERT 202100Z 10006KT CAVOK 14/09 Q1021 NOSIG
LEBA - Cordoba Airport, Spain
Distance from station: ENE 128km
Actualización: 20/11/2017 22:00
Despejado
Despejado
 Viento del calm
Viento: Calma
Temperatura: 8°C
Rocío: 2°C
Humedad: 66%
Barómetro: 1022 hPa
Resumen: Despejado
Visibility: greater than 10 km
2017/11/20 21:00 LEBA 202100Z 00000KT CAVOK 08/02 Q1022
LXGB - Gibraltar (civ/M, Gibraltar
Distance from station: SSE 137km
Actualización: 20/11/2017 21:50
Despejado
Despejado
 Viento del ENE
Viento: ENE 19 km/h
Temperatura: 17°C
Rocío: 16°C
Humedad: 94%
Barómetro: 1022 hPa
Clouds: Despejado
Visibility: 10 km
2017/11/20 20:50 LXGB 202050Z AUTO 07010KT 9999 // NCD 17/16 Q1022
 
LEMG - Malaga (civ/Mil), Spain
Distance from station: ESE 150km
Actualización: 20/11/2017 22:00
Despejado
Despejado
 Viento del ONO
Viento: ONO 13 km/h
Temperatura: 11°C
Rocío: 4°C
Humedad: 62%
Barómetro: 1023 hPa
Resumen: Despejado
Visibility: greater than 10 km
2017/11/20 21:00 LEMG 202100Z 29007KT CAVOK 11/04 Q1023 NOSIG
GMTT - Tangier/Boukhalf, Morocco
Distance from station: S 169km
Actualización: 20/11/2017 22:00
Few Clouds
Few Clouds
 Viento del E
Viento: E 17 km/h
Temperatura: 16°C
Rocío: 10°C
Humedad: 68%
Barómetro: 1020 hPa
Clouds: Few Clouds
Visibility: 10 km
Cloud details: Few Clouds 488 m
2017/11/20 21:00 GMTT 202100Z 10009KT 9999 FEW016 16/10 Q1020 NOSIG
LPFR - Faro, Portugal
Distance from station: O 172km
Actualización: 20/11/2017 22:00
Despejado
Despejado
 Viento del NNE
Viento: NNE 13 km/h
Temperatura: 15°C
Rocío: 8°C
Humedad: 63%
Barómetro: 1021 hPa
Resumen: Despejado
Visibility: greater than 10 km
2017/11/20 21:00 LPFR 202100Z 03007KT CAVOK 15/08 Q1021
 
LPBJ - Beja (por/Ger-Af, Portugal
Distance from station: ONO 192km
Actualización: 20/11/2017 22:00
Despejado
Despejado
 Viento del S
Viento: S 4 km/h
Temperatura: 13°C
Rocío: 4°C
Humedad: 55%
Barómetro: 1022 hPa
Resumen: Despejado
Visibility: greater than 10 km
2017/11/20 21:00 LPBJ 202100Z 17002KT CAVOK 13/04 Q1022
LEBZ - Talavera Ab/Bada, Spain
Distance from station: NNO 194km
Actualización: 20/11/2017 21:00
Despejado
Despejado
 Viento del calm
Viento: Calma
Temperatura: 10°C
Rocío: 2°C
Humedad: 58%
Barómetro: 1022 hPa
Resumen: Despejado
Visibility: greater than 10 km
2017/11/20 20:00 LEBZ 202000Z 00000KT CAVOK 10/02 Q1022
LEMD - Madrid/Barajas, Spain
Distance from station: NE 415km
Actualización: 20/11/2017 22:00
Despejado
Despejado
 Viento del NNO
Viento: NNO 7 km/h
Temperatura: 7°C
Wind Chill: 6°C
Rocío: 0°C
Humedad: 61%
Barómetro: 1024 hPa
Resumen: Despejado
Visibility: greater than 10 km
2017/11/20 21:00 LEMD 202100Z 33004KT CAVOK 07/00 Q1024 NOSIG